sensor_id;sensor_type;location;lat;lon;timestamp;P1;durP1;ratioP1;P2;durP2;ratioP2
920;SDS011;447;51.332;6.778;2023-04-29T00:01:37;13.23;;;11.40;;
920;SDS011;447;51.332;6.778;2023-04-29T00:04:03;13.80;;;10.50;;
920;SDS011;447;51.332;6.778;2023-04-29T00:06:29;12.03;;;10.73;;
920;SDS011;447;51.332;6.778;2023-04-29T00:08:55;16.43;;;12.90;;
920;SDS011;447;51.332;6.778;2023-04-29T00:11:21;17.07;;;13.20;;
920;SDS011;447;51.332;6.778;2023-04-29T00:13:47;19.93;;;14.50;;
920;SDS011;447;51.332;6.778;2023-04-29T00:16:13;18.90;;;14.80;;
920;SDS011;447;51.332;6.778;2023-04-29T00:18:39;23.53;;;16.90;;
920;SDS011;447;51.332;6.778;2023-04-29T00:21:07;17.13;;;13.60;;
920;SDS011;447;51.332;6.778;2023-04-29T00:23:33;24.23;;;17.80;;
920;SDS011;447;51.332;6.778;2023-04-29T00:26:03;19.70;;;16.30;;
920;SDS011;447;51.332;6.778;2023-04-29T00:28:29;20.33;;;14.57;;
920;SDS011;447;51.332;6.778;2023-04-29T00:30:56;22.03;;;16.30;;
920;SDS011;447;51.332;6.778;2023-04-29T00:33:24;21.73;;;16.60;;
920;SDS011;447;51.332;6.778;2023-04-29T00:35:51;25.13;;;18.43;;
920;SDS011;447;51.332;6.778;2023-04-29T00:38:17;23.40;;;16.90;;
920;SDS011;447;51.332;6.778;2023-04-29T00:40:45;24.33;;;18.10;;
920;SDS011;447;51.332;6.778;2023-04-29T00:43:12;25.00;;;18.67;;
920;SDS011;447;51.332;6.778;2023-04-29T00:45:42;29.47;;;21.30;;
920;SDS011;447;51.332;6.778;2023-04-29T00:48:10;28.33;;;19.83;;
920;SDS011;447;51.332;6.778;2023-04-29T00:50:36;31.10;;;20.33;;
920;SDS011;447;51.332;6.778;2023-04-29T00:53:03;27.23;;;19.30;;
920;SDS011;447;51.332;6.778;2023-04-29T00:55:30;31.33;;;21.93;;
920;SDS011;447;51.332;6.778;2023-04-29T00:57:57;26.87;;;18.90;;
920;SDS011;447;51.332;6.778;2023-04-29T01:00:27;33.07;;;21.63;;
920;SDS011;447;51.332;6.778;2023-04-29T01:02:53;29.90;;;21.23;;
920;SDS011;447;51.332;6.778;2023-04-29T01:05:24;29.40;;;21.33;;
920;SDS011;447;51.332;6.778;2023-04-29T01:10:48;29.67;;;22.10;;
920;SDS011;447;51.332;6.778;2023-04-29T01:13:28;40.33;;;24.27;;
920;SDS011;447;51.332;6.778;2023-04-29T01:16:06;36.23;;;23.63;;
920;SDS011;447;51.332;6.778;2023-04-29T01:18:45;37.20;;;24.63;;
920;SDS011;447;51.332;6.778;2023-04-29T01:21:19;30.43;;;21.97;;
920;SDS011;447;51.332;6.778;2023-04-29T01:23:48;34.70;;;24.40;;
920;SDS011;447;51.332;6.778;2023-04-29T01:26:22;37.27;;;24.63;;
920;SDS011;447;51.332;6.778;2023-04-29T01:32:15;35.07;;;24.40;;
920;SDS011;447;51.332;6.778;2023-04-29T01:37:32;33.67;;;23.67;;
920;SDS011;447;51.332;6.778;2023-04-29T01:40:25;39.00;;;25.47;;
920;SDS011;447;51.332;6.778;2023-04-29T01:43:17;36.60;;;25.23;;
920;SDS011;447;51.332;6.778;2023-04-29T01:45:47;36.80;;;24.27;;
920;SDS011;447;51.332;6.778;2023-04-29T01:48:18;41.60;;;26.17;;
920;SDS011;447;51.332;6.778;2023-04-29T01:50:47;45.40;;;27.03;;
920;SDS011;447;51.332;6.778;2023-04-29T01:53:15;40.07;;;25.20;;
920;SDS011;447;51.332;6.778;2023-04-29T01:55:44;41.17;;;25.30;;
920;SDS011;447;51.332;6.778;2023-04-29T01:58:16;44.43;;;27.30;;
920;SDS011;447;51.332;6.778;2023-04-29T02:01:02;45.17;;;25.53;;
920;SDS011;447;51.332;6.778;2023-04-29T02:03:31;38.70;;;25.13;;
920;SDS011;447;51.332;6.778;2023-04-29T02:05:59;38.23;;;24.53;;
920;SDS011;447;51.332;6.778;2023-04-29T02:08:30;39.30;;;24.00;;
920;SDS011;447;51.332;6.778;2023-04-29T02:10:59;38.73;;;23.10;;
920;SDS011;447;51.332;6.778;2023-04-29T02:13:34;42.17;;;25.53;;
920;SDS011;447;51.332;6.778;2023-04-29T02:16:10;40.63;;;25.17;;
920;SDS011;447;51.332;6.778;2023-04-29T02:18:45;40.73;;;25.67;;
920;SDS011;447;51.332;6.778;2023-04-29T02:21:11;38.13;;;23.20;;
920;SDS011;447;51.332;6.778;2023-04-29T02:23:37;42.30;;;25.30;;
920;SDS011;447;51.332;6.778;2023-04-29T02:26:03;38.40;;;23.50;;
920;SDS011;447;51.332;6.778;2023-04-29T02:28:33;36.67;;;22.90;;
920;SDS011;447;51.332;6.778;2023-04-29T02:30:59;38.37;;;25.43;;
920;SDS011;447;51.332;6.778;2023-04-29T02:33:26;39.47;;;23.33;;
920;SDS011;447;51.332;6.778;2023-04-29T02:35:52;38.87;;;24.27;;
920;SDS011;447;51.332;6.778;2023-04-29T02:38:18;34.57;;;22.70;;
920;SDS011;447;51.332;6.778;2023-04-29T02:40:48;35.77;;;23.50;;
920;SDS011;447;51.332;6.778;2023-04-29T02:43:14;35.77;;;22.20;;
920;SDS011;447;51.332;6.778;2023-04-29T02:45:40;38.07;;;23.87;;
920;SDS011;447;51.332;6.778;2023-04-29T02:48:07;40.23;;;22.67;;
920;SDS011;447;51.332;6.778;2023-04-29T02:50:35;37.93;;;22.37;;
920;SDS011;447;51.332;6.778;2023-04-29T02:53:02;35.40;;;22.37;;
920;SDS011;447;51.332;6.778;2023-04-29T02:55:33;34.03;;;20.67;;
920;SDS011;447;51.332;6.778;2023-04-29T02:58:07;36.97;;;23.30;;
920;SDS011;447;51.332;6.778;2023-04-29T03:00:33;33.17;;;20.63;;
920;SDS011;447;51.332;6.778;2023-04-29T03:02:59;34.13;;;22.10;;
920;SDS011;447;51.332;6.778;2023-04-29T03:05:26;34.57;;;21.97;;
920;SDS011;447;51.332;6.778;2023-04-29T03:07:52;38.10;;;23.40;;
920;SDS011;447;51.332;6.778;2023-04-29T03:10:18;37.40;;;22.13;;
920;SDS011;447;51.332;6.778;2023-04-29T03:12:47;32.00;;;20.60;;
920;SDS011;447;51.332;6.778;2023-04-29T03:15:15;34.20;;;22.93;;
920;SDS011;447;51.332;6.778;2023-04-29T03:17:43;37.40;;;21.07;;
920;SDS011;447;51.332;6.778;2023-04-29T03:20:11;34.00;;;22.23;;
920;SDS011;447;51.332;6.778;2023-04-29T03:22:38;39.00;;;23.83;;
920;SDS011;447;51.332;6.778;2023-04-29T03:25:04;33.17;;;21.40;;
920;SDS011;447;51.332;6.778;2023-04-29T03:27:30;38.07;;;22.40;;
920;SDS011;447;51.332;6.778;2023-04-29T03:29:57;38.43;;;23.20;;
920;SDS011;447;51.332;6.778;2023-04-29T03:32:23;35.60;;;22.30;;
920;SDS011;447;51.332;6.778;2023-04-29T03:34:49;35.47;;;22.87;;
920;SDS011;447;51.332;6.778;2023-04-29T03:37:24;33.37;;;21.63;;
920;SDS011;447;51.332;6.778;2023-04-29T03:40:03;34.73;;;22.70;;
920;SDS011;447;51.332;6.778;2023-04-29T03:42:32;34.13;;;23.00;;
920;SDS011;447;51.332;6.778;2023-04-29T03:44:58;33.07;;;20.97;;
920;SDS011;447;51.332;6.778;2023-04-29T03:47:24;28.93;;;19.40;;
920;SDS011;447;51.332;6.778;2023-04-29T03:49:50;28.73;;;19.70;;
920;SDS011;447;51.332;6.778;2023-04-29T03:52:18;28.87;;;18.80;;
920;SDS011;447;51.332;6.778;2023-04-29T03:54:47;30.27;;;18.87;;
920;SDS011;447;51.332;6.778;2023-04-29T03:57:18;28.83;;;19.00;;
920;SDS011;447;51.332;6.778;2023-04-29T03:59:44;28.03;;;18.47;;
920;SDS011;447;51.332;6.778;2023-04-29T04:02:15;25.83;;;18.27;;
920;SDS011;447;51.332;6.778;2023-04-29T04:04:44;25.70;;;16.33;;
920;SDS011;447;51.332;6.778;2023-04-29T04:07:10;26.23;;;18.53;;
920;SDS011;447;51.332;6.778;2023-04-29T04:09:58;26.37;;;16.30;;
920;SDS011;447;51.332;6.778;2023-04-29T04:12:24;25.07;;;17.07;;
920;SDS011;447;51.332;6.778;2023-04-29T04:14:54;28.00;;;18.50;;
920;SDS011;447;51.332;6.778;2023-04-29T04:17:21;22.90;;;15.67;;
920;SDS011;447;51.332;6.778;2023-04-29T04:19:50;26.23;;;16.20;;
920;SDS011;447;51.332;6.778;2023-04-29T04:22:19;20.17;;;14.87;;
920;SDS011;447;51.332;6.778;2023-04-29T04:25:01;21.60;;;15.33;;
920;SDS011;447;51.332;6.778;2023-04-29T04:27:29;18.80;;;13.80;;
920;SDS011;447;51.332;6.778;2023-04-29T04:29:57;23.07;;;15.07;;
920;SDS011;447;51.332;6.778;2023-04-29T04:32:30;23.03;;;15.53;;
920;SDS011;447;51.332;6.778;2023-04-29T04:34:56;23.33;;;15.73;;
920;SDS011;447;51.332;6.778;2023-04-29T04:37:24;21.70;;;14.80;;
920;SDS011;447;51.332;6.778;2023-04-29T04:39:55;17.27;;;12.77;;
920;SDS011;447;51.332;6.778;2023-04-29T04:42:28;19.33;;;14.07;;
920;SDS011;447;51.332;6.778;2023-04-29T04:44:56;19.67;;;13.30;;
920;SDS011;447;51.332;6.778;2023-04-29T04:47:46;20.57;;;13.47;;
920;SDS011;447;51.332;6.778;2023-04-29T04:50:19;19.93;;;12.80;;
920;SDS011;447;51.332;6.778;2023-04-29T04:52:49;17.07;;;13.03;;
920;SDS011;447;51.332;6.778;2023-04-29T04:55:36;18.03;;;13.17;;
920;SDS011;447;51.332;6.778;2023-04-29T04:58:04;16.77;;;12.30;;
920;SDS011;447;51.332;6.778;2023-04-29T05:00:34;19.13;;;13.10;;
920;SDS011;447;51.332;6.778;2023-04-29T05:03:00;15.77;;;12.60;;
920;SDS011;447;51.332;6.778;2023-04-29T05:05:32;18.33;;;13.93;;
920;SDS011;447;51.332;6.778;2023-04-29T05:08:01;18.47;;;13.00;;
920;SDS011;447;51.332;6.778;2023-04-29T05:10:36;19.37;;;12.70;;
920;SDS011;447;51.332;6.778;2023-04-29T05:13:04;16.53;;;12.50;;
920;SDS011;447;51.332;6.778;2023-04-29T05:15:33;18.53;;;12.03;;
920;SDS011;447;51.332;6.778;2023-04-29T05:18:03;15.87;;;12.03;;
920;SDS011;447;51.332;6.778;2023-04-29T05:20:29;22.20;;;13.27;;
920;SDS011;447;51.332;6.778;2023-04-29T05:22:56;18.33;;;13.40;;
920;SDS011;447;51.332;6.778;2023-04-29T05:25:23;18.53;;;13.90;;
920;SDS011;447;51.332;6.778;2023-04-29T05:27:51;18.63;;;13.77;;
920;SDS011;447;51.332;6.778;2023-04-29T05:30:24;21.47;;;15.60;;
920;SDS011;447;51.332;6.778;2023-04-29T05:32:52;32.23;;;23.30;;
920;SDS011;447;51.332;6.778;2023-04-29T05:35:19;19.50;;;14.27;;
920;SDS011;447;51.332;6.778;2023-04-29T05:37:48;20.90;;;15.00;;
920;SDS011;447;51.332;6.778;2023-04-29T05:40:37;17.73;;;13.50;;
920;SDS011;447;51.332;6.778;2023-04-29T05:43:24;19.47;;;14.03;;
920;SDS011;447;51.332;6.778;2023-04-29T05:45:53;19.37;;;13.63;;
920;SDS011;447;51.332;6.778;2023-04-29T05:48:25;20.57;;;13.83;;
920;SDS011;447;51.332;6.778;2023-04-29T05:50:53;16.73;;;12.23;;
920;SDS011;447;51.332;6.778;2023-04-29T05:53:19;17.23;;;12.23;;
920;SDS011;447;51.332;6.778;2023-04-29T05:55:49;19.53;;;13.97;;
920;SDS011;447;51.332;6.778;2023-04-29T05:58:16;18.93;;;12.80;;
920;SDS011;447;51.332;6.778;2023-04-29T06:00:42;17.63;;;13.40;;
920;SDS011;447;51.332;6.778;2023-04-29T06:03:20;18.70;;;13.13;;
920;SDS011;447;51.332;6.778;2023-04-29T06:05:55;18.83;;;14.90;;
920;SDS011;447;51.332;6.778;2023-04-29T06:08:45;18.30;;;12.30;;
920;SDS011;447;51.332;6.778;2023-04-29T06:11:19;20.60;;;13.07;;
920;SDS011;447;51.332;6.778;2023-04-29T06:13:49;16.43;;;11.80;;
920;SDS011;447;51.332;6.778;2023-04-29T06:16:22;15.20;;;12.10;;
920;SDS011;447;51.332;6.778;2023-04-29T06:18:53;16.80;;;11.77;;
920;SDS011;447;51.332;6.778;2023-04-29T06:21:19;14.67;;;10.97;;
920;SDS011;447;51.332;6.778;2023-04-29T06:23:45;14.87;;;11.17;;
920;SDS011;447;51.332;6.778;2023-04-29T06:26:18;17.43;;;12.33;;
920;SDS011;447;51.332;6.778;2023-04-29T06:28:49;17.07;;;11.97;;
920;SDS011;447;51.332;6.778;2023-04-29T06:31:18;18.87;;;11.60;;
920;SDS011;447;51.332;6.778;2023-04-29T06:33:48;16.47;;;11.00;;
920;SDS011;447;51.332;6.778;2023-04-29T06:36:14;13.00;;;10.87;;
920;SDS011;447;51.332;6.778;2023-04-29T06:38:43;14.47;;;11.20;;
920;SDS011;447;51.332;6.778;2023-04-29T06:41:40;14.07;;;11.30;;
920;SDS011;447;51.332;6.778;2023-04-29T06:44:34;14.43;;;11.13;;
920;SDS011;447;51.332;6.778;2023-04-29T06:47:32;16.00;;;11.23;;
920;SDS011;447;51.332;6.778;2023-04-29T06:50:09;14.50;;;11.17;;
920;SDS011;447;51.332;6.778;2023-04-29T06:52:38;14.17;;;11.60;;
920;SDS011;447;51.332;6.778;2023-04-29T06:55:06;15.80;;;11.97;;
920;SDS011;447;51.332;6.778;2023-04-29T06:57:35;16.00;;;10.90;;
920;SDS011;447;51.332;6.778;2023-04-29T07:00:04;13.10;;;10.20;;
920;SDS011;447;51.332;6.778;2023-04-29T07:02:31;12.50;;;9.43;;
920;SDS011;447;51.332;6.778;2023-04-29T07:04:57;13.30;;;10.20;;
920;SDS011;447;51.332;6.778;2023-04-29T07:07:24;13.60;;;10.10;;
920;SDS011;447;51.332;6.778;2023-04-29T07:09:50;15.10;;;10.50;;
920;SDS011;447;51.332;6.778;2023-04-29T07:12:19;14.60;;;10.40;;
920;SDS011;447;51.332;6.778;2023-04-29T07:14:45;14.47;;;11.07;;
920;SDS011;447;51.332;6.778;2023-04-29T07:17:11;12.70;;;9.80;;
920;SDS011;447;51.332;6.778;2023-04-29T07:19:37;14.60;;;11.60;;
920;SDS011;447;51.332;6.778;2023-04-29T07:22:04;11.03;;;9.90;;
920;SDS011;447;51.332;6.778;2023-04-29T07:24:30;12.10;;;9.83;;
920;SDS011;447;51.332;6.778;2023-04-29T07:26:56;12.53;;;10.10;;
920;SDS011;447;51.332;6.778;2023-04-29T07:29:22;13.67;;;10.00;;
920;SDS011;447;51.332;6.778;2023-04-29T07:31:48;12.10;;;9.67;;
920;SDS011;447;51.332;6.778;2023-04-29T07:34:14;12.70;;;9.70;;
920;SDS011;447;51.332;6.778;2023-04-29T07:36:40;10.20;;;8.80;;
920;SDS011;447;51.332;6.778;2023-04-29T07:39:06;12.63;;;10.30;;
920;SDS011;447;51.332;6.778;2023-04-29T07:41:32;15.10;;;9.80;;
920;SDS011;447;51.332;6.778;2023-04-29T07:43:59;11.83;;;9.90;;
920;SDS011;447;51.332;6.778;2023-04-29T07:46:25;11.83;;;10.17;;
920;SDS011;447;51.332;6.778;2023-04-29T07:48:53;11.77;;;9.30;;
920;SDS011;447;51.332;6.778;2023-04-29T07:51:19;11.60;;;9.40;;
920;SDS011;447;51.332;6.778;2023-04-29T07:53:46;11.07;;;9.03;;
920;SDS011;447;51.332;6.778;2023-04-29T07:56:12;11.73;;;9.03;;
920;SDS011;447;51.332;6.778;2023-04-29T07:58:41;12.43;;;9.30;;
920;SDS011;447;51.332;6.778;2023-04-29T08:01:08;12.17;;;9.93;;
920;SDS011;447;51.332;6.778;2023-04-29T08:03:37;16.23;;;10.60;;
920;SDS011;447;51.332;6.778;2023-04-29T08:06:04;14.63;;;10.67;;
920;SDS011;447;51.332;6.778;2023-04-29T08:08:32;11.13;;;9.20;;
920;SDS011;447;51.332;6.778;2023-04-29T08:11:00;10.80;;;8.63;;
920;SDS011;447;51.332;6.778;2023-04-29T08:13:32;14.70;;;9.13;;
920;SDS011;447;51.332;6.778;2023-04-29T08:16:02;12.70;;;10.07;;
920;SDS011;447;51.332;6.778;2023-04-29T08:18:29;11.10;;;9.47;;
920;SDS011;447;51.332;6.778;2023-04-29T08:20:55;12.40;;;9.83;;
920;SDS011;447;51.332;6.778;2023-04-29T08:23:24;10.23;;;8.97;;
920;SDS011;447;51.332;6.778;2023-04-29T08:25:49;10.93;;;8.60;;
920;SDS011;447;51.332;6.778;2023-04-29T08:28:16;13.90;;;9.63;;
920;SDS011;447;51.332;6.778;2023-04-29T08:30:45;14.57;;;10.63;;
920;SDS011;447;51.332;6.778;2023-04-29T08:33:11;11.93;;;10.33;;
920;SDS011;447;51.332;6.778;2023-04-29T08:35:40;11.80;;;9.57;;
920;SDS011;447;51.332;6.778;2023-04-29T08:38:09;12.30;;;10.97;;
920;SDS011;447;51.332;6.778;2023-04-29T08:40:41;13.60;;;10.10;;
920;SDS011;447;51.332;6.778;2023-04-29T08:43:14;11.40;;;9.60;;
920;SDS011;447;51.332;6.778;2023-04-29T08:45:42;13.93;;;10.50;;
920;SDS011;447;51.332;6.778;2023-04-29T08:48:08;14.23;;;10.10;;
920;SDS011;447;51.332;6.778;2023-04-29T08:50:39;15.47;;;11.37;;
920;SDS011;447;51.332;6.778;2023-04-29T08:53:09;15.70;;;11.40;;
920;SDS011;447;51.332;6.778;2023-04-29T08:55:43;14.50;;;11.17;;
920;SDS011;447;51.332;6.778;2023-04-29T08:58:15;16.60;;;12.40;;
920;SDS011;447;51.332;6.778;2023-04-29T09:00:42;15.37;;;12.07;;
920;SDS011;447;51.332;6.778;2023-04-29T09:05:53;17.70;;;13.00;;
920;SDS011;447;51.332;6.778;2023-04-29T09:08:20;16.20;;;12.20;;
920;SDS011;447;51.332;6.778;2023-04-29T09:10:53;13.50;;;11.00;;
920;SDS011;447;51.332;6.778;2023-04-29T09:13:23;16.60;;;11.73;;
920;SDS011;447;51.332;6.778;2023-04-29T09:15:54;15.40;;;11.40;;
920;SDS011;447;51.332;6.778;2023-04-29T09:21:18;15.40;;;13.13;;
920;SDS011;447;51.332;6.778;2023-04-29T09:23:48;15.10;;;12.40;;
920;SDS011;447;51.332;6.778;2023-04-29T09:26:16;19.13;;;12.97;;
920;SDS011;447;51.332;6.778;2023-04-29T09:28:42;18.67;;;14.70;;
920;SDS011;447;51.332;6.778;2023-04-29T09:31:12;17.23;;;13.37;;
920;SDS011;447;51.332;6.778;2023-04-29T09:33:54;16.20;;;12.50;;
920;SDS011;447;51.332;6.778;2023-04-29T09:39:09;15.50;;;12.90;;
920;SDS011;447;51.332;6.778;2023-04-29T09:44:23;19.53;;;15.40;;
920;SDS011;447;51.332;6.778;2023-04-29T09:46:57;18.00;;;14.50;;
920;SDS011;447;51.332;6.778;2023-04-29T09:49:27;17.30;;;12.93;;
920;SDS011;447;51.332;6.778;2023-04-29T09:51:55;19.33;;;13.73;;
920;SDS011;447;51.332;6.778;2023-04-29T09:54:28;18.30;;;13.57;;
920;SDS011;447;51.332;6.778;2023-04-29T09:56:58;16.33;;;14.17;;
920;SDS011;447;51.332;6.778;2023-04-29T09:59:28;25.27;;;14.30;;
920;SDS011;447;51.332;6.778;2023-04-29T10:01:55;18.63;;;14.97;;
920;SDS011;447;51.332;6.778;2023-04-29T10:04:22;23.83;;;17.53;;
920;SDS011;447;51.332;6.778;2023-04-29T10:06:51;21.57;;;16.23;;
920;SDS011;447;51.332;6.778;2023-04-29T10:09:19;20.07;;;16.30;;
920;SDS011;447;51.332;6.778;2023-04-29T10:11:49;19.20;;;15.90;;
920;SDS011;447;51.332;6.778;2023-04-29T10:14:17;18.47;;;16.40;;
920;SDS011;447;51.332;6.778;2023-04-29T10:19:14;19.13;;;15.00;;
920;SDS011;447;51.332;6.778;2023-04-29T10:21:49;23.10;;;16.27;;
920;SDS011;447;51.332;6.778;2023-04-29T10:24:16;20.43;;;15.43;;
920;SDS011;447;51.332;6.778;2023-04-29T10:26:48;20.70;;;16.57;;
920;SDS011;447;51.332;6.778;2023-04-29T10:29:16;22.27;;;16.80;;
920;SDS011;447;51.332;6.778;2023-04-29T10:31:43;19.00;;;15.20;;
920;SDS011;447;51.332;6.778;2023-04-29T10:34:12;21.83;;;16.50;;
920;SDS011;447;51.332;6.778;2023-04-29T10:36:42;21.23;;;16.50;;
920;SDS011;447;51.332;6.778;2023-04-29T10:39:10;21.67;;;15.53;;
920;SDS011;447;51.332;6.778;2023-04-29T10:41:48;23.30;;;16.40;;
920;SDS011;447;51.332;6.778;2023-04-29T10:44:16;21.07;;;15.47;;
920;SDS011;447;51.332;6.778;2023-04-29T10:46:41;19.30;;;14.67;;
920;SDS011;447;51.332;6.778;2023-04-29T10:49:07;18.57;;;15.60;;
920;SDS011;447;51.332;6.778;2023-04-29T10:51:41;19.50;;;15.13;;
920;SDS011;447;51.332;6.778;2023-04-29T10:54:14;21.20;;;15.40;;
920;SDS011;447;51.332;6.778;2023-04-29T10:56:50;18.50;;;15.23;;
920;SDS011;447;51.332;6.778;2023-04-29T11:01:55;19.13;;;16.30;;
920;SDS011;447;51.332;6.778;2023-04-29T11:04:25;24.33;;;16.87;;
920;SDS011;447;51.332;6.778;2023-04-29T11:06:53;24.00;;;16.10;;
920;SDS011;447;51.332;6.778;2023-04-29T11:09:27;23.13;;;16.10;;
920;SDS011;447;51.332;6.778;2023-04-29T11:12:04;20.37;;;14.80;;
920;SDS011;447;51.332;6.778;2023-04-29T11:14:41;19.73;;;14.10;;
920;SDS011;447;51.332;6.778;2023-04-29T11:17:14;17.40;;;14.37;;
920;SDS011;447;51.332;6.778;2023-04-29T11:19:45;22.57;;;15.90;;
920;SDS011;447;51.332;6.778;2023-04-29T11:24:50;19.10;;;15.80;;
920;SDS011;447;51.332;6.778;2023-04-29T11:27:18;19.30;;;15.40;;
920;SDS011;447;51.332;6.778;2023-04-29T11:29:48;22.47;;;16.20;;
920;SDS011;447;51.332;6.778;2023-04-29T11:32:20;18.60;;;16.17;;
920;SDS011;447;51.332;6.778;2023-04-29T11:34:52;21.40;;;15.30;;
920;SDS011;447;51.332;6.778;2023-04-29T11:37:21;21.07;;;16.40;;
920;SDS011;447;51.332;6.778;2023-04-29T11:39:49;22.23;;;16.90;;
920;SDS011;447;51.332;6.778;2023-04-29T11:42:19;16.63;;;14.83;;
920;SDS011;447;51.332;6.778;2023-04-29T11:44:52;22.97;;;16.17;;
920;SDS011;447;51.332;6.778;2023-04-29T11:47:28;19.03;;;16.07;;
920;SDS011;447;51.332;6.778;2023-04-29T11:50:01;20.27;;;16.53;;
920;SDS011;447;51.332;6.778;2023-04-29T11:52:34;20.00;;;14.80;;
920;SDS011;447;51.332;6.778;2023-04-29T11:55:04;21.10;;;16.33;;
920;SDS011;447;51.332;6.778;2023-04-29T11:57:32;17.23;;;15.33;;
920;SDS011;447;51.332;6.778;2023-04-29T12:00:01;19.23;;;15.17;;
920;SDS011;447;51.332;6.778;2023-04-29T12:02:33;17.00;;;15.20;;
920;SDS011;447;51.332;6.778;2023-04-29T12:04:59;20.70;;;14.90;;
920;SDS011;447;51.332;6.778;2023-04-29T12:07:31;17.20;;;14.70;;
920;SDS011;447;51.332;6.778;2023-04-29T12:10:02;18.90;;;16.37;;
920;SDS011;447;51.332;6.778;2023-04-29T12:12:28;19.80;;;15.00;;
920;SDS011;447;51.332;6.778;2023-04-29T12:14:59;18.10;;;14.43;;
920;SDS011;447;51.332;6.778;2023-04-29T12:17:27;19.00;;;15.70;;
920;SDS011;447;51.332;6.778;2023-04-29T12:19:54;18.27;;;15.53;;
920;SDS011;447;51.332;6.778;2023-04-29T12:22:21;16.57;;;14.43;;
920;SDS011;447;51.332;6.778;2023-04-29T12:24:47;21.37;;;15.60;;
920;SDS011;447;51.332;6.778;2023-04-29T12:27:19;21.07;;;15.20;;
920;SDS011;447;51.332;6.778;2023-04-29T12:29:48;20.13;;;16.07;;
920;SDS011;447;51.332;6.778;2023-04-29T12:32:17;17.50;;;14.67;;
920;SDS011;447;51.332;6.778;2023-04-29T12:34:51;19.00;;;16.77;;
920;SDS011;447;51.332;6.778;2023-04-29T12:37:17;17.97;;;15.57;;
920;SDS011;447;51.332;6.778;2023-04-29T12:39:48;20.53;;;17.00;;
920;SDS011;447;51.332;6.778;2023-04-29T12:42:14;20.63;;;16.40;;
920;SDS011;447;51.332;6.778;2023-04-29T12:44:49;19.77;;;15.20;;
920;SDS011;447;51.332;6.778;2023-04-29T12:47:17;67.00;;;21.00;;
920;SDS011;447;51.332;6.778;2023-04-29T12:49:46;89.30;;;21.57;;
920;SDS011;447;51.332;6.778;2023-04-29T12:52:18;67.03;;;20.77;;
920;SDS011;447;51.332;6.778;2023-04-29T12:54:46;61.00;;;19.23;;
920;SDS011;447;51.332;6.778;2023-04-29T12:57:14;32.37;;;17.33;;
920;SDS011;447;51.332;6.778;2023-04-29T12:59:40;32.23;;;18.07;;
920;SDS011;447;51.332;6.778;2023-04-29T13:02:09;29.70;;;18.07;;
920;SDS011;447;51.332;6.778;2023-04-29T13:04:37;47.80;;;19.13;;
920;SDS011;447;51.332;6.778;2023-04-29T13:07:05;30.97;;;17.20;;
920;SDS011;447;51.332;6.778;2023-04-29T13:09:32;29.73;;;17.77;;
920;SDS011;447;51.332;6.778;2023-04-29T13:12:00;24.73;;;17.70;;
920;SDS011;447;51.332;6.778;2023-04-29T13:14:28;23.63;;;20.30;;
920;SDS011;447;51.332;6.778;2023-04-29T13:16:55;22.13;;;19.23;;
920;SDS011;447;51.332;6.778;2023-04-29T13:19:21;26.87;;;19.33;;
920;SDS011;447;51.332;6.778;2023-04-29T13:21:46;27.27;;;19.00;;
920;SDS011;447;51.332;6.778;2023-04-29T13:24:13;32.87;;;21.10;;
920;SDS011;447;51.332;6.778;2023-04-29T13:26:45;24.57;;;20.03;;
920;SDS011;447;51.332;6.778;2023-04-29T13:29:12;29.37;;;21.43;;
920;SDS011;447;51.332;6.778;2023-04-29T13:31:40;23.67;;;19.77;;
920;SDS011;447;51.332;6.778;2023-04-29T13:34:10;23.83;;;20.37;;
920;SDS011;447;51.332;6.778;2023-04-29T13:36:38;25.50;;;19.50;;
920;SDS011;447;51.332;6.778;2023-04-29T13:39:07;20.40;;;18.20;;
920;SDS011;447;51.332;6.778;2023-04-29T13:41:33;25.60;;;18.27;;
920;SDS011;447;51.332;6.778;2023-04-29T13:44:01;21.27;;;18.20;;
920;SDS011;447;51.332;6.778;2023-04-29T13:46:30;28.67;;;18.90;;
920;SDS011;447;51.332;6.778;2023-04-29T13:48:57;20.23;;;17.03;;
920;SDS011;447;51.332;6.778;2023-04-29T13:51:23;23.70;;;18.20;;
920;SDS011;447;51.332;6.778;2023-04-29T13:53:49;23.43;;;18.03;;
920;SDS011;447;51.332;6.778;2023-04-29T13:56:17;21.07;;;17.40;;
920;SDS011;447;51.332;6.778;2023-04-29T13:58:50;22.83;;;17.43;;
920;SDS011;447;51.332;6.778;2023-04-29T14:01:23;19.40;;;16.33;;
920;SDS011;447;51.332;6.778;2023-04-29T14:03:49;18.20;;;15.60;;
920;SDS011;447;51.332;6.778;2023-04-29T14:06:17;16.33;;;14.63;;
920;SDS011;447;51.332;6.778;2023-04-29T14:08:43;19.13;;;15.43;;
920;SDS011;447;51.332;6.778;2023-04-29T14:11:11;16.27;;;13.53;;
920;SDS011;447;51.332;6.778;2023-04-29T14:13:38;17.57;;;15.03;;
920;SDS011;447;51.332;6.778;2023-04-29T14:16:07;15.80;;;14.13;;
920;SDS011;447;51.332;6.778;2023-04-29T14:18:33;15.13;;;13.53;;
920;SDS011;447;51.332;6.778;2023-04-29T14:20:59;17.13;;;15.20;;
920;SDS011;447;51.332;6.778;2023-04-29T14:23:28;15.97;;;14.27;;
920;SDS011;447;51.332;6.778;2023-04-29T14:25:56;15.80;;;14.10;;
920;SDS011;447;51.332;6.778;2023-04-29T14:28:22;16.80;;;15.03;;
920;SDS011;447;51.332;6.778;2023-04-29T14:30:48;15.67;;;13.47;;
920;SDS011;447;51.332;6.778;2023-04-29T14:33:17;17.30;;;12.00;;
920;SDS011;447;51.332;6.778;2023-04-29T14:35:43;15.13;;;13.20;;
920;SDS011;447;51.332;6.778;2023-04-29T14:38:08;14.37;;;12.20;;
920;SDS011;447;51.332;6.778;2023-04-29T14:40:35;13.90;;;12.37;;
920;SDS011;447;51.332;6.778;2023-04-29T14:43:05;16.43;;;12.00;;
920;SDS011;447;51.332;6.778;2023-04-29T14:45:34;16.23;;;11.57;;
920;SDS011;447;51.332;6.778;2023-04-29T14:48:02;17.00;;;11.40;;
920;SDS011;447;51.332;6.778;2023-04-29T14:50:28;14.43;;;12.67;;
920;SDS011;447;51.332;6.778;2023-04-29T14:52:55;16.20;;;12.77;;
920;SDS011;447;51.332;6.778;2023-04-29T14:55:22;17.13;;;13.40;;
920;SDS011;447;51.332;6.778;2023-04-29T14:57:50;15.27;;;11.47;;
920;SDS011;447;51.332;6.778;2023-04-29T15:00:18;14.20;;;11.00;;
920;SDS011;447;51.332;6.778;2023-04-29T15:02:44;14.60;;;11.10;;
920;SDS011;447;51.332;6.778;2023-04-29T15:05:10;12.00;;;10.57;;
920;SDS011;447;51.332;6.778;2023-04-29T15:07:41;13.17;;;11.70;;
920;SDS011;447;51.332;6.778;2023-04-29T15:10:07;12.80;;;9.90;;
920;SDS011;447;51.332;6.778;2023-04-29T15:12:36;14.73;;;11.20;;
920;SDS011;447;51.332;6.778;2023-04-29T15:15:02;13.20;;;10.93;;
920;SDS011;447;51.332;6.778;2023-04-29T15:17:29;12.53;;;9.70;;
920;SDS011;447;51.332;6.778;2023-04-29T15:19:55;12.33;;;9.60;;
920;SDS011;447;51.332;6.778;2023-04-29T15:22:23;11.87;;;9.50;;
920;SDS011;447;51.332;6.778;2023-04-29T15:24:56;10.63;;;8.50;;
920;SDS011;447;51.332;6.778;2023-04-29T15:27:24;10.80;;;8.53;;
920;SDS011;447;51.332;6.778;2023-04-29T15:29:50;11.50;;;8.90;;
920;SDS011;447;51.332;6.778;2023-04-29T15:32:20;16.83;;;9.47;;
920;SDS011;447;51.332;6.778;2023-04-29T15:34:49;10.50;;;8.97;;
920;SDS011;447;51.332;6.778;2023-04-29T15:37:15;10.90;;;9.13;;
920;SDS011;447;51.332;6.778;2023-04-29T15:39:41;13.73;;;9.97;;
920;SDS011;447;51.332;6.778;2023-04-29T15:42:09;12.63;;;9.70;;
920;SDS011;447;51.332;6.778;2023-04-29T15:44:35;11.47;;;9.47;;
920;SDS011;447;51.332;6.778;2023-04-29T15:47:03;12.90;;;8.90;;
920;SDS011;447;51.332;6.778;2023-04-29T15:49:34;10.07;;;9.07;;
920;SDS011;447;51.332;6.778;2023-04-29T15:52:00;9.00;;;8.10;;
920;SDS011;447;51.332;6.778;2023-04-29T15:54:31;12.70;;;9.40;;
920;SDS011;447;51.332;6.778;2023-04-29T15:56:59;16.93;;;8.80;;
920;SDS011;447;51.332;6.778;2023-04-29T15:59:30;13.03;;;9.53;;